createdAt,value
2023-01-04T00:01:14.459Z,6.20
2023-01-04T00:03:41.744Z,6.57
2023-01-04T00:06:11.591Z,4.25
2023-01-04T00:08:38.748Z,6.05
2023-01-04T00:11:20.343Z,1.83
2023-01-04T00:13:49.177Z,4.68
2023-01-04T00:16:18.921Z,3.17
2023-01-04T00:18:45.954Z,7.00
2023-01-04T00:21:15.451Z,4.78
2023-01-04T00:23:44.036Z,5.75
2023-01-04T00:26:13.493Z,1.27
2023-01-04T00:28:40.888Z,6.63
2023-01-04T00:31:09.733Z,1.75
2023-01-04T00:33:37.585Z,8.27
2023-01-04T00:36:06.834Z,4.35
2023-01-04T00:38:34.369Z,11.40
2023-01-04T00:41:01.906Z,7.28
2023-01-04T00:43:28.711Z,6.25
2023-01-04T00:45:55.514Z,7.70
2023-01-04T00:48:23.073Z,9.52
2023-01-04T00:50:50.312Z,3.40
2023-01-04T00:53:18.166Z,1.45
2023-01-04T00:55:45.461Z,2.72
2023-01-04T00:58:12.303Z,1.63
2023-01-04T01:00:39.727Z,5.07
2023-01-04T01:03:06.890Z,2.72
2023-01-04T01:05:35.510Z,4.03
2023-01-04T01:08:24.545Z,5.53
2023-01-04T01:10:52.300Z,3.40
2023-01-04T01:13:19.772Z,1.33
2023-01-04T01:15:46.658Z,5.80
2023-01-04T01:18:13.866Z,2.53
2023-01-04T01:20:43.873Z,9.70
2023-01-04T01:23:15.089Z,2.08
2023-01-04T01:25:42.668Z,4.10
2023-01-04T01:28:09.711Z,5.18
2023-01-04T01:30:41.712Z,3.28
2023-01-04T01:35:36.303Z,7.82
2023-01-04T01:38:03.059Z,4.72
2023-01-04T01:40:30.089Z,6.78
2023-01-04T01:42:56.811Z,2.65
2023-01-04T01:45:28.357Z,2.38
2023-01-04T01:48:10.390Z,2.00
2023-01-04T01:50:47.238Z,2.17
2023-01-04T01:53:14.960Z,3.20
2023-01-04T01:55:44.710Z,4.43
2023-01-04T01:58:17.017Z,4.22
2023-01-04T02:00:43.704Z,1.88
2023-01-04T02:03:24.962Z,3.75
2023-01-04T02:05:53.990Z,7.43
2023-01-04T02:08:22.713Z,3.97
2023-01-04T02:10:49.802Z,2.08
2023-01-04T02:13:21.368Z,7.95
2023-01-04T02:16:07.776Z,7.60
2023-01-04T02:18:50.800Z,5.72
2023-01-04T02:21:33.355Z,4.88
2023-01-04T02:24:42.734Z,6.32
2023-01-04T02:27:09.411Z,3.25
2023-01-04T02:30:05.169Z,3.83
2023-01-04T02:33:00.405Z,4.03
2023-01-04T02:36:05.767Z,3.20
2023-01-04T02:38:59.062Z,2.47
2023-01-04T02:41:49.769Z,2.45
2023-01-04T02:44:53.517Z,3.22
2023-01-04T02:47:54.765Z,1.08
2023-01-04T02:50:32.279Z,3.63
2023-01-04T02:53:14.955Z,3.00
2023-01-04T02:55:44.714Z,3.70
2023-01-04T02:58:27.672Z,3.70
2023-01-04T03:01:48.309Z,6.57
2023-01-04T03:04:57.948Z,2.72
2023-01-04T03:07:49.792Z,1.88
2023-01-04T03:10:35.829Z,5.18
2023-01-04T03:13:11.375Z,2.70
2023-01-04T03:15:42.186Z,2.42
2023-01-04T03:18:17.059Z,7.53
2023-01-04T03:20:46.635Z,3.70
2023-01-04T03:23:35.653Z,2.47
2023-01-04T03:26:33.715Z,1.50
2023-01-04T03:29:27.901Z,4.07
2023-01-04T03:32:25.412Z,1.85
2023-01-04T03:35:11.752Z,4.45
2023-01-04T03:37:51.449Z,3.83
2023-01-04T03:40:39.698Z,3.55
2023-01-04T03:43:30.709Z,3.92
2023-01-04T03:46:38.902Z,5.50
2023-01-04T03:49:27.848Z,4.30
2023-01-04T03:51:58.331Z,6.78
2023-01-04T03:54:38.326Z,2.83
2023-01-04T03:57:06.780Z,4.03
2023-01-04T03:59:39.224Z,4.65
2023-01-04T04:02:10.494Z,6.03
2023-01-04T04:04:55.964Z,4.13
2023-01-04T04:07:41.211Z,10.73
2023-01-04T04:10:08.260Z,2.70
2023-01-04T04:12:34.916Z,4.05
2023-01-04T04:15:01.645Z,1.80
2023-01-04T04:17:28.277Z,2.33
2023-01-04T04:19:54.917Z,5.22
2023-01-04T04:22:21.721Z,6.53
2023-01-04T04:24:48.546Z,3.50
2023-01-04T04:27:15.190Z,3.03
2023-01-04T04:29:41.859Z,4.30
2023-01-04T04:32:08.563Z,2.75
2023-01-04T04:34:36.531Z,3.25
2023-01-04T04:37:03.566Z,4.15
2023-01-04T04:39:30.253Z,4.88
2023-01-04T04:41:56.924Z,3.33
2023-01-04T04:44:23.880Z,0.70
2023-01-04T04:46:50.654Z,3.63
2023-01-04T04:49:18.320Z,2.67
2023-01-04T04:51:46.147Z,2.83
2023-01-04T04:54:17.166Z,2.80
2023-01-04T04:56:43.907Z,6.78
2023-01-04T04:59:10.581Z,2.70
2023-01-04T05:01:37.371Z,2.63
2023-01-04T05:04:04.442Z,2.58
2023-01-04T05:06:31.573Z,2.38
2023-01-04T05:08:58.498Z,3.30
2023-01-04T05:11:44.238Z,1.17
2023-01-04T05:14:14.327Z,1.60
2023-01-04T05:16:41.116Z,0.57
2023-01-04T05:19:07.888Z,4.43
2023-01-04T05:21:34.549Z,4.05
2023-01-04T05:24:01.174Z,4.55
2023-01-04T05:26:27.886Z,0.88
2023-01-04T05:28:54.635Z,4.55
2023-01-04T05:31:21.929Z,1.15
2023-01-04T05:33:48.733Z,4.60
2023-01-04T05:36:15.419Z,2.35
2023-01-04T05:38:42.152Z,2.55
2023-01-04T05:41:29.024Z,2.33
2023-01-04T05:43:56.163Z,3.50
2023-01-04T05:46:23.369Z,1.98
2023-01-04T05:48:50.130Z,1.17
2023-01-04T05:51:16.930Z,1.13
2023-01-04T05:53:43.595Z,1.65
2023-01-04T05:56:10.389Z,0.77
2023-01-04T05:58:37.017Z,0.40
2023-01-04T06:01:03.725Z,0.90
2023-01-04T06:03:30.509Z,1.13
2023-01-04T06:05:57.254Z,1.17
2023-01-04T06:08:24.034Z,1.65
2023-01-04T06:10:54.420Z,0.40
2023-01-04T06:13:21.548Z,0.77
2023-01-04T06:15:48.703Z,0.40
2023-01-04T06:18:15.465Z,0.70
2023-01-04T06:20:45.049Z,0.77
2023-01-04T06:23:11.782Z,2.17
2023-01-04T06:25:38.720Z,3.40
2023-01-04T06:28:05.403Z,0.95
2023-01-04T06:30:32.156Z,4.20
2023-01-04T06:32:58.899Z,3.75
2023-01-04T06:35:25.699Z,0.60
2023-01-04T06:37:52.318Z,1.48
2023-01-04T06:40:19.033Z,2.70
2023-01-04T06:42:45.713Z,1.55
2023-01-04T06:45:14.130Z,0.73
2023-01-04T06:47:41.140Z,0.70
2023-01-04T06:50:08.448Z,9.02
2023-01-04T06:52:35.268Z,1.65
2023-01-04T06:55:01.999Z,3.70
2023-01-04T06:57:29.560Z,5.45
2023-01-04T06:59:56.233Z,0.80
2023-01-04T07:02:23.031Z,1.13
2023-01-04T07:04:49.909Z,2.58
2023-01-04T07:07:16.714Z,0.98
2023-01-04T07:09:43.426Z,3.55
2023-01-04T07:12:10.357Z,1.50
2023-01-04T07:14:37.080Z,2.17
2023-01-04T07:17:03.789Z,1.85
2023-01-04T07:19:30.513Z,3.50
2023-01-04T07:21:58.717Z,0.90
2023-01-04T07:24:29.994Z,1.33
2023-01-04T07:26:59.477Z,1.52
2023-01-04T07:29:26.231Z,1.33
2023-01-04T07:31:53.387Z,2.42
2023-01-04T07:34:22.456Z,2.58
2023-01-04T07:36:49.958Z,4.47
2023-01-04T07:39:18.179Z,3.67
2023-01-04T07:41:45.337Z,2.83
2023-01-04T07:44:15.007Z,1.75
2023-01-04T07:46:42.980Z,5.35
2023-01-04T07:49:17.601Z,2.28
2023-01-04T07:51:49.292Z,1.83
2023-01-04T07:54:17.414Z,1.02
2023-01-04T07:56:45.583Z,1.52
2023-01-04T07:59:13.590Z,3.20
2023-01-04T08:01:41.696Z,1.27
2023-01-04T08:04:13.868Z,2.28
2023-01-04T08:09:11.929Z,3.70
2023-01-04T08:11:38.806Z,1.40
2023-01-04T08:14:05.645Z,1.38
2023-01-04T08:16:35.606Z,0.90
2023-01-04T08:19:09.038Z,3.03
2023-01-04T08:21:36.261Z,1.27
2023-01-04T08:24:03.976Z,1.20
2023-01-04T08:26:31.821Z,0.98
2023-01-04T08:28:59.186Z,2.83
2023-01-04T08:31:28.886Z,0.75
2023-01-04T08:33:56.298Z,4.10
2023-01-04T08:36:27.565Z,1.55
2023-01-04T08:39:01.736Z,1.48
2023-01-04T08:44:22.834Z,0.70
2023-01-04T08:46:50.827Z,1.42
2023-01-04T08:49:18.043Z,1.95
2023-01-04T08:51:45.605Z,1.42
2023-01-04T08:54:12.750Z,1.35
2023-01-04T08:56:39.886Z,2.90
2023-01-04T08:59:07.760Z,1.13
2023-01-04T09:01:35.225Z,1.70
2023-01-04T09:04:02.751Z,11.20
2023-01-04T09:06:30.020Z,1.02
2023-01-04T09:08:57.339Z,2.65
2023-01-04T09:11:24.920Z,1.75
2023-01-04T09:14:02.432Z,1.30
2023-01-04T09:16:33.557Z,1.92
2023-01-04T09:19:00.640Z,1.92
2023-01-04T09:21:27.810Z,2.78
2023-01-04T09:23:56.319Z,4.18
2023-01-04T09:26:23.791Z,1.00
2023-01-04T09:28:52.735Z,2.25
2023-01-04T09:31:22.105Z,5.88
2023-01-04T09:34:14.079Z,3.80
2023-01-04T09:36:35.705Z,1.45
2023-01-04T09:39:02.588Z,1.67
2023-01-04T09:41:32.547Z,1.05
2023-01-04T09:44:16.877Z,2.78
2023-01-04T09:46:46.647Z,0.95
2023-01-04T09:49:19.049Z,1.15
2023-01-04T09:52:06.689Z,1.42
2023-01-04T09:55:36.414Z,1.20
2023-01-04T09:57:53.677Z,0.80
2023-01-04T10:00:43.886Z,0.70
2023-01-04T10:03:31.530Z,0.70
2023-01-04T10:06:00.632Z,1.73
2023-01-04T10:08:27.345Z,0.70
2023-01-04T10:11:16.034Z,3.85
2023-01-04T10:13:53.609Z,1.50
2023-01-04T10:17:12.295Z,2.55
2023-01-04T10:22:27.803Z,4.18
2023-01-04T10:25:14.997Z,0.90
2023-01-04T10:27:52.826Z,3.45
2023-01-04T10:30:52.400Z,4.18
2023-01-04T10:33:42.521Z,0.50
2023-01-04T10:36:21.545Z,1.17
2023-01-04T10:38:58.160Z,1.33
2023-01-04T10:41:28.701Z,2.80
2023-01-04T10:44:20.974Z,1.00
2023-01-04T10:47:08.730Z,0.55
2023-01-04T10:49:40.316Z,4.30
2023-01-04T10:52:27.184Z,0.70
2023-01-04T10:55:01.781Z,0.60
2023-01-04T10:57:36.935Z,1.65
2023-01-04T11:00:21.428Z,0.63
2023-01-04T11:02:54.144Z,0.98
2023-01-04T11:05:37.744Z,0.93
2023-01-04T11:08:20.602Z,1.08
2023-01-04T11:10:52.785Z,0.82
2023-01-04T11:13:19.972Z,1.92
2023-01-04T11:15:47.843Z,2.35
2023-01-04T11:18:15.714Z,1.27
2023-01-04T11:20:43.416Z,0.73
2023-01-04T11:23:14.919Z,0.60
2023-01-04T11:25:55.585Z,2.63
2023-01-04T11:29:01.015Z,1.30
2023-01-04T11:31:50.977Z,0.73
2023-01-04T11:34:17.771Z,0.88
2023-01-04T11:36:46.498Z,0.77
2023-01-04T11:39:20.638Z,0.88
2023-01-04T11:42:04.952Z,1.05
2023-01-04T11:44:43.514Z,1.10
2023-01-04T11:47:33.444Z,1.85
2023-01-04T11:50:40.014Z,0.70
2023-01-04T11:53:45.965Z,0.77
2023-01-04T11:56:26.113Z,1.02
2023-01-04T11:59:19.235Z,2.00
2023-01-04T12:01:51.745Z,1.58
2023-01-04T12:04:24.805Z,0.95
2023-01-04T12:06:59.229Z,2.22
2023-01-04T12:09:26.081Z,1.08
2023-01-04T12:11:56.261Z,1.27
2023-01-04T12:14:27.761Z,1.42
2023-01-04T12:17:11.116Z,3.38
2023-01-04T12:19:41.373Z,0.90
2023-01-04T12:22:33.486Z,3.53
2023-01-04T12:25:02.789Z,2.38
2023-01-04T12:27:29.770Z,5.22
2023-01-04T12:29:59.917Z,2.35
2023-01-04T12:32:26.545Z,2.08
2023-01-04T12:34:54.909Z,1.67
2023-01-04T12:37:42.629Z,2.45
2023-01-04T12:40:46.648Z,1.08
2023-01-04T12:43:16.328Z,1.90
2023-01-04T12:45:44.829Z,5.82
2023-01-04T12:48:49.946Z,2.33
2023-01-04T12:51:31.691Z,4.28
2023-01-04T12:54:24.425Z,2.00
2023-01-04T12:57:24.925Z,2.30
2023-01-04T13:00:05.169Z,3.15
2023-01-04T13:02:54.108Z,2.20
2023-01-04T13:05:55.307Z,2.55
2023-01-04T13:08:14.959Z,5.03
2023-01-04T13:10:47.165Z,3.72
2023-01-04T13:13:32.844Z,3.88
2023-01-04T13:15:59.466Z,2.83
2023-01-04T13:18:40.575Z,1.67
2023-01-04T13:21:10.759Z,4.38
2023-01-04T13:23:39.190Z,3.45
2023-01-04T13:26:39.135Z,3.60
2023-01-04T13:29:27.414Z,3.63
2023-01-04T13:32:04.521Z,4.90
2023-01-04T13:34:34.585Z,2.72
2023-01-04T13:37:11.725Z,2.50
2023-01-04T13:39:51.279Z,2.33
2023-01-04T13:42:28.462Z,2.50
2023-01-04T13:45:20.436Z,2.67
2023-01-04T13:47:50.767Z,3.78
2023-01-04T13:50:49.736Z,2.75
2023-01-04T13:53:20.597Z,3.35
2023-01-04T13:55:54.866Z,2.90
2023-01-04T13:58:24.537Z,4.13
2023-01-04T14:01:25.876Z,3.75
2023-01-04T14:04:02.053Z,2.60
2023-01-04T14:06:41.397Z,5.60
2023-01-04T14:09:11.126Z,3.47
2023-01-04T14:12:06.812Z,3.60
2023-01-04T14:14:56.227Z,3.97
2023-01-04T14:17:25.305Z,6.78
2023-01-04T14:20:05.495Z,6.07
2023-01-04T14:22:47.285Z,4.43
2023-01-04T14:25:36.692Z,4.05
2023-01-04T14:28:27.256Z,4.13
2023-01-04T14:31:12.336Z,5.32
2023-01-04T14:33:49.927Z,3.58
2023-01-04T14:36:28.932Z,6.32
2023-01-04T14:39:23.622Z,4.82
2023-01-04T14:41:51.496Z,4.22
2023-01-04T14:44:28.611Z,3.65
2023-01-04T14:47:01.130Z,3.47
2023-01-04T14:49:28.492Z,4.60
2023-01-04T14:52:01.161Z,7.38
2023-01-04T14:54:29.395Z,2.90
2023-01-04T14:56:57.674Z,7.47
2023-01-04T14:59:24.935Z,9.35
2023-01-04T15:01:56.272Z,6.05
2023-01-04T15:04:23.847Z,9.70
2023-01-04T15:06:57.153Z,4.07
2023-01-04T15:09:40.162Z,4.93
2023-01-04T15:12:06.953Z,4.03
2023-01-04T15:14:33.593Z,7.07
2023-01-04T15:17:00.327Z,5.85
2023-01-04T15:19:28.489Z,4.28
2023-01-04T15:21:56.867Z,7.78
2023-01-04T15:24:23.485Z,6.80
2023-01-04T15:26:50.196Z,8.88
2023-01-04T15:29:16.897Z,7.80
2023-01-04T15:31:44.558Z,5.53
2023-01-04T15:34:11.392Z,4.22
2023-01-04T15:36:40.454Z,18.98
2023-01-04T15:39:09.987Z,9.77
2023-01-04T15:41:55.284Z,4.97
2023-01-04T15:44:21.936Z,5.15
2023-01-04T15:46:50.571Z,8.23
2023-01-04T15:49:18.018Z,5.60
2023-01-04T15:51:45.641Z,4.07
2023-01-04T15:54:12.599Z,5.28
2023-01-04T15:56:39.263Z,10.68
2023-01-04T15:59:06.007Z,9.32
2023-01-04T16:01:32.714Z,6.70
2023-01-04T16:03:59.431Z,6.07
2023-01-04T16:06:26.744Z,5.72
2023-01-04T16:08:58.808Z,9.63
2023-01-04T16:11:25.758Z,4.45
2023-01-04T16:13:52.959Z,6.68
2023-01-04T16:16:21.911Z,3.55
2023-01-04T16:18:54.450Z,10.40
2023-01-04T16:21:29.359Z,5.25
2023-01-04T16:24:05.115Z,4.28
2023-01-04T16:26:33.874Z,3.88
2023-01-04T16:29:00.815Z,1.80
2023-01-04T16:31:36.247Z,2.90
2023-01-04T16:34:04.084Z,4.63
2023-01-04T16:36:31.238Z,9.07
2023-01-04T16:38:57.894Z,5.68
2023-01-04T16:41:25.073Z,3.20
2023-01-04T16:43:55.270Z,6.45
2023-01-04T16:46:31.041Z,2.65
2023-01-04T16:49:02.019Z,8.82
2023-01-04T16:51:30.980Z,9.50
2023-01-04T16:53:57.673Z,3.90
2023-01-04T16:56:25.128Z,6.55
2023-01-04T16:58:52.304Z,7.13
2023-01-04T17:01:24.546Z,7.32
2023-01-04T17:03:54.771Z,4.28
2023-01-04T17:06:25.345Z,8.23
2023-01-04T17:08:53.666Z,6.65
2023-01-04T17:14:13.014Z,9.45
2023-01-04T17:16:43.579Z,7.13
2023-01-04T17:19:10.336Z,6.35
2023-01-04T17:21:37.920Z,9.93
2023-01-04T17:24:04.878Z,3.65
2023-01-04T17:26:32.733Z,7.90
2023-01-04T17:29:01.437Z,8.77
2023-01-04T17:31:31.758Z,5.90
2023-01-04T17:33:58.634Z,11.07
2023-01-04T17:36:25.384Z,6.75
2023-01-04T17:38:52.224Z,5.78
2023-01-04T17:41:24.441Z,9.23
2023-01-04T17:43:54.128Z,5.53
2023-01-04T17:46:23.779Z,8.95
2023-01-04T17:49:17.667Z,4.65
2023-01-04T17:51:39.707Z,9.20
2023-01-04T17:54:11.315Z,6.50
2023-01-04T17:56:38.100Z,6.40
2023-01-04T17:59:09.743Z,7.85
2023-01-04T18:01:36.646Z,4.53
2023-01-04T18:04:04.119Z,7.47
2023-01-04T18:06:34.465Z,6.20
2023-01-04T18:09:02.290Z,5.75
2023-01-04T18:11:29.219Z,3.45
2023-01-04T18:13:55.996Z,11.25
2023-01-04T18:16:27.855Z,8.80
2023-01-04T18:18:56.551Z,6.22
2023-01-04T18:21:30.822Z,11.52
2023-01-04T18:24:35.885Z,8.80
2023-01-04T18:27:21.922Z,15.93
2023-01-04T18:29:50.558Z,8.60
2023-01-04T18:32:17.587Z,10.50
2023-01-04T18:34:44.534Z,15.23
2023-01-04T18:37:11.208Z,17.00
2023-01-04T18:39:37.913Z,25.08
2023-01-04T18:42:04.581Z,19.63
2023-01-04T18:44:33.323Z,14.43
2023-01-04T18:47:01.592Z,11.20
2023-01-04T18:49:28.275Z,13.45
2023-01-04T18:51:54.902Z,9.95
2023-01-04T18:54:21.987Z,16.25
2023-01-04T18:56:48.814Z,10.38
2023-01-04T18:59:18.663Z,15.70
2023-01-04T19:01:45.905Z,15.50
2023-01-04T19:04:13.474Z,15.60
2023-01-04T19:06:40.925Z,18.25
2023-01-04T19:09:08.287Z,13.57
2023-01-04T19:11:35.847Z,19.92
2023-01-04T19:14:03.370Z,16.67
2023-01-04T19:16:31.384Z,13.30
2023-01-04T19:19:01.722Z,13.13
2023-01-04T19:21:29.078Z,15.02
2023-01-04T19:23:56.075Z,11.27
2023-01-04T19:26:47.768Z,15.93
2023-01-04T19:30:20.112Z,12.68
2023-01-04T19:32:46.951Z,19.38
2023-01-04T19:35:23.472Z,18.02
2023-01-04T19:37:50.260Z,16.00
2023-01-04T19:40:17.073Z,13.27
2023-01-04T19:42:44.411Z,13.70
2023-01-04T19:45:11.891Z,16.80
2023-01-04T19:47:38.742Z,18.02
2023-01-04T19:50:06.323Z,11.73
2023-01-04T19:52:37.653Z,12.20
2023-01-04T19:55:05.814Z,15.45
2023-01-04T19:57:32.605Z,16.85
2023-01-04T20:00:00.116Z,13.73
2023-01-04T20:02:27.835Z,12.18
2023-01-04T20:04:54.642Z,15.43
2023-01-04T20:07:21.310Z,8.73
2023-01-04T20:09:48.735Z,14.70
2023-01-04T20:12:15.403Z,15.15
2023-01-04T20:14:42.137Z,13.30
2023-01-04T20:17:08.942Z,18.45
2023-01-04T20:19:35.672Z,4.97
2023-01-04T20:22:02.364Z,21.23
2023-01-04T20:24:29.117Z,11.80
2023-01-04T20:26:55.772Z,13.10
2023-01-04T20:29:22.471Z,18.75
2023-01-04T20:31:49.130Z,10.40
2023-01-04T20:35:07.331Z,7.07
2023-01-04T20:37:34.076Z,14.98
2023-01-04T20:40:10.809Z,25.10
2023-01-04T20:43:03.254Z,17.90
2023-01-04T20:45:29.974Z,17.75
2023-01-04T20:47:56.592Z,17.33
2023-01-04T20:50:23.359Z,18.33
2023-01-04T20:52:49.986Z,14.32
2023-01-04T20:55:17.723Z,15.43
2023-01-04T20:57:44.527Z,9.20
2023-01-04T21:00:12.758Z,12.40
2023-01-04T21:02:39.659Z,11.02
2023-01-04T21:05:06.903Z,16.95
2023-01-04T21:07:33.583Z,13.32
2023-01-04T21:10:00.221Z,13.25
2023-01-04T21:12:26.968Z,15.50
2023-01-04T21:14:54.004Z,10.98
2023-01-04T21:17:20.656Z,12.20
2023-01-04T21:19:47.312Z,14.80
2023-01-04T21:22:13.948Z,9.68
2023-01-04T21:24:40.677Z,13.13
2023-01-04T21:27:07.345Z,20.45
2023-01-04T21:29:33.987Z,16.08
2023-01-04T21:32:00.670Z,15.05
2023-01-04T21:34:28.017Z,15.77
2023-01-04T21:36:54.726Z,23.90
2023-01-04T21:39:22.139Z,13.70
2023-01-04T21:41:51.178Z,19.35
2023-01-04T21:44:17.906Z,14.48
2023-01-04T21:46:45.159Z,19.45
2023-01-04T21:49:12.527Z,16.08
2023-01-04T21:51:40.086Z,21.90
2023-01-04T21:54:06.819Z,12.57
2023-01-04T21:56:33.491Z,13.57
2023-01-04T21:59:00.214Z,24.05
2023-01-04T22:01:32.474Z,11.30
2023-01-04T22:04:01.681Z,14.10
2023-01-04T22:06:29.108Z,10.27
2023-01-04T22:08:55.843Z,14.55
2023-01-04T22:11:22.596Z,23.42
2023-01-04T22:13:50.496Z,17.38
2023-01-04T22:16:17.921Z,12.45
2023-01-04T22:18:48.460Z,17.83
2023-01-04T22:21:18.378Z,19.48
2023-01-04T22:23:45.138Z,20.08
2023-01-04T22:26:11.961Z,14.13
2023-01-04T22:28:40.047Z,14.85
2023-01-04T22:31:09.961Z,20.35
2023-01-04T22:33:37.593Z,22.17
2023-01-04T22:36:19.497Z,19.65
2023-01-04T22:38:49.671Z,21.10
2023-01-04T22:41:18.842Z,20.33
2023-01-04T22:43:45.794Z,24.25
2023-01-04T22:46:15.139Z,17.98
2023-01-04T22:48:41.892Z,15.20
2023-01-04T22:51:10.753Z,23.80
2023-01-04T22:53:37.607Z,19.27
2023-01-04T22:56:19.030Z,16.60
2023-01-04T22:58:53.059Z,20.45
2023-01-04T23:01:22.364Z,19.05
2023-01-04T23:03:51.580Z,14.38
2023-01-04T23:06:18.799Z,13.65
2023-01-04T23:08:45.433Z,18.92
2023-01-04T23:11:14.844Z,20.08
2023-01-04T23:13:42.065Z,12.07
2023-01-04T23:16:11.468Z,19.25
2023-01-04T23:18:38.468Z,15.73
2023-01-04T23:21:05.745Z,16.50
2023-01-04T23:23:32.774Z,14.80
2023-01-04T23:26:08.137Z,12.00
2023-01-04T23:28:37.947Z,13.45
2023-01-04T23:31:07.155Z,20.75
2023-01-04T23:33:36.524Z,13.38
2023-01-04T23:36:14.424Z,24.40
2023-01-04T23:38:43.017Z,18.90
2023-01-04T23:41:10.792Z,15.73
2023-01-04T23:43:38.559Z,19.80
2023-01-04T23:46:17.220Z,16.02
2023-01-04T23:48:44.468Z,19.38
2023-01-04T23:51:15.126Z,8.73
2023-01-04T23:53:41.796Z,15.95
2023-01-04T23:56:14.710Z,20.48
2023-01-04T23:58:41.703Z,18.10
